Time;durP1;ratioP1;P1;durP2;ratioP2;P2;SDS_P1;SDS_P2;PMS_P1;PMS_P2;Temp;Humidity;BMP_temperature;BMP_pressure;BME280_temperature;BME280_humidity;BME280_pressure;Samples;Min_cycle;Max_cycle;Signal;HPM_P1;HPM_P2
2021/07/10 00:01:08;;;;;;;42.33;22.00;;;;;;;15.87;81.39;102123.34;5033837;28;20032;-79
2021/07/10 00:03:33;;;;;;;44.17;24.23;;;;;;;15.83;81.24;102119.78;5038078;28;20063;-78
2021/07/10 00:05:59;;;;;;;42.60;24.33;;;;;;;15.82;82.01;102118.84;5047146;28;20041;-79
2021/07/10 00:08:24;;;;;;;53.40;26.48;;;;;;;15.83;81.78;102115.34;5048368;28;20061;-79
2021/07/10 00:10:50;;;;;;;53.40;28.67;;;;;;;15.82;81.86;102110.91;5048680;28;20043;-79
2021/07/10 00:13:15;;;;;;;53.72;27.30;;;;;;;15.81;81.28;102101.16;5047792;28;20490;-79
2021/07/10 00:15:41;;;;;;;51.20;28.42;;;;;;;15.78;81.56;102098.41;5046157;28;20029;-77
2021/07/10 00:18:06;;;;;;;52.22;26.45;;;;;;;15.75;82.20;102105.44;5048198;28;20029;-78
2021/07/10 00:20:32;;;;;;;48.90;27.08;;;;;;;15.71;82.13;102106.25;5046603;28;20493;-78
2021/07/10 00:22:57;;;;;;;43.38;22.33;;;;;;;15.71;82.86;102104.50;5046869;28;20033;-77
2021/07/10 00:25:23;;;;;;;47.10;24.38;;;;;;;15.71;83.19;102111.56;5042761;28;20025;-77
2021/07/10 00:27:50;;;;;;;51.55;27.15;;;;;;;15.71;83.08;102108.91;5046458;28;20029;-76
2021/07/10 00:30:55;;;;;;;46.60;24.38;;;;;;;15.71;83.11;102099.19;5048038;28;20029;-79
2021/07/10 00:33:20;;;;;;;53.10;25.63;;;;;;;15.73;82.93;102102.75;5048186;28;20051;-78
2021/07/10 00:35:46;;;;;;;48.42;25.83;;;;;;;15.74;82.93;102091.28;5043369;28;20023;-79
2021/07/10 00:38:11;;;;;;;50.22;25.20;;;;;;;15.76;82.38;102093.94;5046033;28;20094;-78
2021/07/10 00:40:37;;;;;;;49.42;25.70;;;;;;;15.79;82.25;102094.00;5049981;28;20029;-78
2021/07/10 00:43:03;;;;;;;46.60;23.90;;;;;;;15.79;82.43;102084.28;5050254;28;20067;-78
2021/07/10 00:45:28;;;;;;;46.85;25.27;;;;;;;15.78;82.68;102084.25;5050301;28;20032;-79
2021/07/10 00:47:53;;;;;;;53.80;24.60;;;;;;;15.76;82.55;102078.03;5052565;28;20029;-78
2021/07/10 00:50:39;;;;;;;49.33;24.27;;;;;;;15.77;82.73;102074.50;5049700;28;20064;-78
2021/07/10 00:53:05;;;;;;;54.38;24.63;;;;;;;15.77;82.65;102079.81;5050114;28;20483;-78
2021/07/10 00:55:30;;;;;;;52.60;24.00;;;;;;;15.76;83.38;102083.34;5050809;28;20242;-78
2021/07/10 00:58:16;;;;;;;52.33;23.40;;;;;;;15.75;83.49;102081.53;5050737;28;20491;-78
2021/07/10 01:01:02;;;;;;;48.45;24.10;;;;;;;15.76;82.76;102073.63;5053960;28;20033;-79
2021/07/10 01:03:31;;;;;;;48.22;24.08;;;;;;;15.74;82.47;102063.88;5057754;28;20044;-77
2021/07/10 01:05:56;;;;;;;46.45;24.55;;;;;;;15.69;82.74;102069.09;5057187;28;20071;-78
2021/07/10 01:08:22;;;;;;;46.42;24.98;;;;;;;15.63;82.98;102063.69;5056892;28;20483;-77
2021/07/10 01:10:48;;;;;;;45.63;23.38;;;;;;;15.56;83.66;102069.75;5054387;28;20028;-76
2021/07/10 01:13:15;;;;;;;46.60;22.75;;;;;;;15.47;83.56;102060.78;5053389;28;20122;-78
2021/07/10 01:15:41;;;;;;;44.72;23.30;;;;;;;15.43;83.87;102058.97;5055296;28;20036;-78
2021/07/10 01:18:06;;;;;;;50.10;23.25;;;;;;;15.38;84.29;102059.75;5054558;28;20025;-78
2021/07/10 01:20:31;;;;;;;51.60;24.35;;;;;;;15.33;84.35;102063.22;5052442;28;20032;-77
2021/07/10 01:23:17;;;;;;;56.83;24.25;;;;;;;15.26;84.81;102058.69;5057084;28;20028;-78
2021/07/10 01:26:01;;;;;;;49.97;25.85;;;;;;;15.23;85.07;102057.75;5053891;28;20438;-77
2021/07/10 01:28:27;;;;;;;58.58;25.50;;;;;;;15.20;85.09;102057.69;5053586;28;20032;-78
2021/07/10 01:30:52;;;;;;;54.90;26.73;;;;;;;15.17;85.27;102042.63;5049995;28;20036;-77
2021/07/10 01:33:18;;;;;;;51.40;25.70;;;;;;;15.19;85.05;102048.84;5050916;28;20021;-76
2021/07/10 01:36:04;;;;;;;56.08;28.15;;;;;;;15.16;85.46;102046.13;5057544;28;20040;-78
2021/07/10 01:38:30;;;;;;;60.25;28.00;;;;;;;15.16;85.27;102036.41;5052267;28;20048;-77
2021/07/10 01:40:55;;;;;;;64.18;29.50;;;;;;;15.18;84.64;102032.03;5053511;28;20037;-77
2021/07/10 01:43:21;;;;;;;51.95;28.80;;;;;;;15.21;84.44;102035.63;5052251;28;20130;-78
2021/07/10 01:45:46;;;;;;;48.70;26.33;;;;;;;15.28;83.70;102029.56;5051720;28;20112;-77
2021/07/10 01:48:13;;;;;;;51.28;26.95;;;;;;;15.33;83.74;102027.88;5047564;28;20029;-78
2021/07/10 01:50:40;;;;;;;49.92;28.38;;;;;;;15.34;84.25;102019.94;5049894;28;20037;-77
2021/07/10 01:53:06;;;;;;;52.13;29.98;;;;;;;15.38;84.00;102025.28;5063170;28;20029;-79
2021/07/10 01:55:32;;;;;;;47.25;25.58;;;;;;;15.40;83.97;102024.44;5044960;28;20555;-79
2021/07/10 01:58:17;;;;;;;48.03;27.95;;;;;;;15.45;83.53;102020.09;5053004;28;20025;-79
2021/07/10 02:00:49;;;;;;;55.05;29.23;;;;;;;15.47;83.30;102018.34;5047261;28;20407;-77
2021/07/10 02:03:15;;;;;;;48.30;28.95;;;;;;;15.49;83.14;102021.00;5051318;28;20446;-77
2021/07/10 02:05:41;;;;;;;51.67;28.00;;;;;;;15.47;83.15;102021.00;5051847;28;20025;-77
2021/07/10 02:08:09;;;;;;;56.60;29.65;;;;;;;15.43;83.83;102016.53;5049190;28;20450;-77
2021/07/10 02:10:34;;;;;;;54.17;30.55;;;;;;;15.38;83.89;102012.00;5048997;28;20033;-80
2021/07/10 02:13:15;;;;;;;60.08;32.00;;;;;;;15.36;84.30;102014.66;5050075;28;20556;-77
2021/07/10 02:16:00;;;;;;;57.90;30.40;;;;;;;15.36;84.53;102006.69;5049129;28;20055;-78
2021/07/10 02:18:26;;;;;;;58.17;31.98;;;;;;;15.39;84.57;102012.03;5049189;28;20032;-77
2021/07/10 02:20:51;;;;;;;52.55;29.67;;;;;;;15.42;84.25;102005.88;5050276;28;20083;-78
2021/07/10 02:23:17;;;;;;;56.60;32.08;;;;;;;15.42;84.13;102006.75;5048034;28;20742;-77
2021/07/10 02:25:42;;;;;;;53.10;30.10;;;;;;;15.43;84.17;102011.22;5048065;28;20033;-78
2021/07/10 02:28:08;;;;;;;61.78;32.10;;;;;;;15.42;84.66;102017.38;5049722;28;20028;-78
2021/07/10 02:30:34;;;;;;;50.80;29.52;;;;;;;15.43;84.49;102011.22;5050884;28;20079;-77
2021/07/10 02:33:01;;;;;;;60.97;30.77;;;;;;;15.45;84.37;102006.84;5048852;28;20017;-78
2021/07/10 02:35:28;;;;;;;54.10;30.73;;;;;;;15.47;84.07;102002.44;5044141;28;20472;-78
2021/07/10 02:38:01;;;;;;;57.63;30.75;;;;;;;15.49;84.13;102002.44;5049709;28;20037;-78
2021/07/10 02:40:26;;;;;;;63.10;32.63;;;;;;;15.48;84.18;102001.56;5049934;28;20024;-76
2021/07/10 02:42:52;;;;;;;57.47;30.05;;;;;;;15.49;84.04;101997.13;5032646;28;20024;-77
2021/07/10 02:45:19;;;;;;;67.03;33.92;;;;;;;15.48;84.47;101995.38;5050146;28;20364;-78
2021/07/10 02:47:46;;;;;;;59.65;31.38;;;;;;;15.45;84.30;101995.31;5047643;28;20033;-78
2021/07/10 02:50:31;;;;;;;61.65;30.98;;;;;;;15.43;84.79;101986.47;5048932;28;20025;-78
2021/07/10 02:52:56;;;;;;;54.10;29.60;;;;;;;15.43;84.48;101986.47;5047979;28;20033;-78
2021/07/10 02:55:24;;;;;;;58.25;31.45;;;;;;;15.40;84.69;101976.69;5049485;28;20368;-78
2021/07/10 02:57:50;;;;;;;54.50;29.42;;;;;;;15.36;85.07;101979.28;5049752;28;20036;-77
2021/07/10 03:00:18;;;;;;;58.05;29.05;;;;;;;15.29;84.79;101973.88;5048877;28;20378;-78
2021/07/10 03:02:43;;;;;;;62.38;31.88;;;;;;;15.23;84.87;101973.78;5049071;28;20032;-79
2021/07/10 03:05:29;;;;;;;58.83;30.55;;;;;;;15.16;84.79;101972.78;5029401;28;20156;-76
2021/07/10 03:07:54;;;;;;;59.85;29.10;;;;;;;15.08;84.94;101971.78;5033029;28;20543;-77
2021/07/10 03:10:22;;;;;;;63.13;30.85;;;;;;;15.03;84.84;101968.19;5035845;28;20136;-79
2021/07/10 03:12:48;;;;;;;62.47;30.88;;;;;;;14.95;84.87;101967.16;5031394;28;20436;-77
2021/07/10 03:15:16;;;;;;;62.10;28.98;;;;;;;14.88;85.12;101965.25;5016659;28;20045;-77
2021/07/10 03:17:46;;;;;;;66.30;32.67;;;;;;;14.80;85.71;101960.72;5034137;28;20063;-79
2021/07/10 03:20:31;;;;;;;73.95;30.48;;;;;;;14.77;86.37;101957.13;5031542;28;20029;-78
2021/07/10 03:22:58;;;;;;;63.83;29.85;;;;;;;14.76;86.58;101950.94;5035086;28;20088;-78
2021/07/10 03:25:44;;;;;;;67.78;31.73;;;;;;;14.75;86.75;101954.44;5037080;28;20037;-78
2021/07/10 03:28:12;;;;;;;67.55;31.20;;;;;;;14.75;86.98;101950.94;5036132;28;20190;-78
2021/07/10 03:30:39;;;;;;;67.75;31.70;;;;;;;14.78;87.11;101957.16;4996809;28;20038;-78
2021/07/10 03:33:04;;;;;;;72.28;32.70;;;;;;;14.81;86.95;101953.66;5033081;28;20060;-78
2021/07/10 03:35:30;;;;;;;75.38;33.60;;;;;;;14.82;86.95;101956.34;5028123;28;20021;-78
2021/07/10 03:37:57;;;;;;;72.20;33.05;;;;;;;14.83;86.96;101957.25;5032472;28;20037;-78
2021/07/10 03:40:44;;;;;;;76.47;34.92;;;;;;;14.82;87.19;101951.03;5035880;28;20037;-77
2021/07/10 03:43:11;;;;;;;80.30;35.38;;;;;;;14.82;87.09;101943.09;5031656;28;20558;-78
2021/07/10 03:45:36;;;;;;;80.65;34.78;;;;;;;14.82;86.79;101940.44;5028912;28;20056;-78
2021/07/10 03:48:02;;;;;;;92.18;38.25;;;;;;;14.82;86.86;101939.56;5031897;28;20116;-78
2021/07/10 03:50:28;;;;;;;84.63;38.13;;;;;;;14.82;86.59;101942.19;5021083;28;20488;-77
2021/07/10 03:52:53;;;;;;;87.07;36.45;;;;;;;14.83;87.07;101942.22;5032760;28;20043;-77
2021/07/10 03:55:19;;;;;;;93.18;38.95;;;;;;;14.85;87.00;101942.25;5034948;28;20030;-79
2021/07/10 03:57:45;;;;;;;87.40;37.83;;;;;;;14.90;86.94;101945.00;5033688;28;20057;-78
2021/07/10 04:00:16;;;;;;;87.47;38.13;;;;;;;14.95;87.07;101945.97;5033133;28;20419;-79
2021/07/10 04:02:43;;;;;;;94.55;39.25;;;;;;;15.02;87.05;101953.13;5036054;28;20036;-77
2021/07/10 04:05:10;;;;;;;81.75;37.88;;;;;;;15.09;87.06;101944.41;5033048;28;20033;-76
2021/07/10 04:07:37;;;;;;;87.40;37.65;;;;;;;15.16;86.86;101935.66;5036422;28;20037;-78
2021/07/10 04:10:05;;;;;;;79.30;36.15;;;;;;;15.23;86.70;101939.31;5023609;28;20034;-78
2021/07/10 04:12:33;;;;;;;79.25;35.00;;;;;;;15.28;86.30;101939.38;5031747;28;20427;-79
2021/07/10 04:15:00;;;;;;;72.07;34.97;;;;;;;15.32;85.69;101935.91;5024570;28;20050;-78
2021/07/10 04:17:32;;;;;;;77.13;34.08;;;;;;;15.36;85.38;101939.50;5017354;28;20033;-77
2021/07/10 04:20:18;;;;;;;84.10;36.55;;;;;;;15.35;85.55;101930.66;5031199;28;20072;-78
2021/07/10 04:23:20;;;;;;;75.97;33.45;;;;;;;15.38;84.85;101930.69;5028636;28;20045;-78
2021/07/10 04:25:46;;;;;;;75.82;34.53;;;;;;;15.44;85.08;101936.09;5032085;28;20098;-78
2021/07/10 04:28:12;;;;;;;74.18;34.33;;;;;;;15.47;85.28;101930.81;5035896;28;20116;-78
2021/07/10 04:30:57;;;;;;;73.55;33.28;;;;;;;15.49;85.33;101929.09;5029354;28;20484;-77
2021/07/10 04:33:23;;;;;;;71.15;32.95;;;;;;;15.55;85.12;101932.69;5030978;28;20036;-78
2021/07/10 04:35:48;;;;;;;74.13;33.80;;;;;;;15.63;84.89;101933.69;5036226;28;20018;-78
2021/07/10 04:38:15;;;;;;;76.32;33.30;;;;;;;15.70;84.58;101930.22;5033493;28;20029;-78
2021/07/10 04:41:00;;;;;;;64.70;31.98;;;;;;;15.80;84.35;101929.53;5028906;28;20395;-77
2021/07/10 04:43:26;;;;;;;68.28;31.52;;;;;;;15.92;83.83;101931.41;5033855;28;20101;-78
2021/07/10 04:45:51;;;;;;;72.68;32.72;;;;;;;16.04;84.06;101927.13;5037005;28;20120;-77
2021/07/10 04:48:17;;;;;;;60.75;29.83;;;;;;;16.13;83.38;101925.47;5035465;28;20063;-77
2021/07/10 04:50:42;;;;;;;57.22;28.27;;;;;;;16.23;83.23;101933.53;5031305;28;20075;-78
2021/07/10 04:53:07;;;;;;;69.55;31.02;;;;;;;16.33;82.79;101935.41;5037347;28;20021;-78
2021/07/10 04:55:33;;;;;;;50.67;27.55;;;;;;;16.37;81.86;101925.72;5041817;28;20041;-77
2021/07/10 04:57:58;;;;;;;62.15;29.33;;;;;;;16.42;81.28;101930.19;5030746;28;20026;-77
2021/07/10 05:00:24;;;;;;;57.92;29.45;;;;;;;16.45;81.03;101919.56;5035256;28;20812;-77
2021/07/10 05:02:50;;;;;;;57.17;29.33;;;;;;;16.52;80.40;101925.84;5033996;28;20434;-77
2021/07/10 05:05:15;;;;;;;56.28;27.50;;;;;;;16.65;80.56;101926.84;5031368;28;20116;-78
2021/07/10 05:07:41;;;;;;;50.03;26.73;;;;;;;16.77;80.11;101926.97;5031877;28;20436;-79
2021/07/10 05:10:27;;;;;;;53.85;26.15;;;;;;;16.89;79.57;101935.91;5031025;28;20025;-78
2021/07/10 05:12:52;;;;;;;50.47;27.35;;;;;;;16.94;79.47;101939.53;5032285;28;20033;-78
2021/07/10 05:15:17;;;;;;;49.40;25.63;;;;;;;16.97;79.60;101940.44;5030870;28;20169;-78
2021/07/10 05:17:43;;;;;;;47.92;24.48;;;;;;;16.98;79.16;101930.69;5033143;28;20021;-78
2021/07/10 05:20:22;;;;;;;55.60;27.15;;;;;;;17.09;78.82;101929.03;5031939;28;20037;-78
2021/07/10 05:22:47;;;;;;;51.40;25.50;;;;;;;17.17;78.18;101921.06;5032637;28;20475;-78
2021/07/10 05:25:13;;;;;;;50.55;26.58;;;;;;;17.25;78.71;101924.66;5029175;28;20040;-77
2021/07/10 05:27:39;;;;;;;46.38;25.45;;;;;;;17.18;77.56;101921.06;5033711;28;20044;-78
2021/07/10 05:30:28;;;;;;;46.08;24.35;;;;;;;17.40;77.82;101918.53;5031725;28;20044;-79
2021/07/10 05:32:53;;;;;;;43.28;23.77;;;;;;;17.53;77.32;101920.41;5029747;28;20195;-77
2021/07/10 05:35:21;;;;;;;45.10;25.48;;;;;;;17.68;76.67;101919.56;5026727;28;20523;-78
2021/07/10 05:38:07;;;;;;;44.13;22.77;;;;;;;17.83;76.49;101918.75;5032422;28;20044;-78
2021/07/10 05:40:32;;;;;;;38.38;22.73;;;;;;;17.95;75.78;101928.59;5031236;28;20037;-78
2021/07/10 05:42:58;;;;;;;45.13;25.13;;;;;;;17.89;75.84;101923.19;5031218;28;20029;-77
2021/07/10 05:45:23;;;;;;;42.50;23.95;;;;;;;17.91;75.70;101925.91;5028507;28;20037;-78
2021/07/10 05:47:49;;;;;;;42.25;23.92;;;;;;;17.93;75.38;101927.69;5030588;28;20038;-78
2021/07/10 05:50:15;;;;;;;43.15;24.90;;;;;;;17.85;76.28;101924.97;5030510;28;20022;-79
2021/07/10 05:52:42;;;;;;;40.75;24.08;;;;;;;17.83;75.56;101924.06;5032220;28;20029;-78
2021/07/10 05:55:27;;;;;;;46.65;24.10;;;;;;;17.77;76.46;101928.47;5031588;28;20064;-76
2021/07/10 05:57:53;;;;;;;42.95;23.67;;;;;;;17.80;75.34;101928.50;5025923;28;20068;-76
2021/07/10 06:00:18;;;;;;;49.80;25.40;;;;;;;17.75;76.54;101920.50;5030535;28;20060;-77
2021/07/10 06:02:44;;;;;;;43.00;23.50;;;;;;;17.79;75.99;101926.72;5031616;28;20025;-76
2021/07/10 06:05:10;;;;;;;44.70;23.33;;;;;;;17.81;75.85;101923.19;5049425;28;20060;-77
2021/07/10 06:07:38;;;;;;;44.15;23.30;;;;;;;17.81;74.82;101917.88;5047559;28;20527;-77
2021/07/10 06:10:11;;;;;;;41.17;22.17;;;;;;;17.90;75.35;101918.78;5029358;28;20494;-77
2021/07/10 06:12:56;;;;;;;39.80;22.58;;;;;;;17.86;76.31;101925.84;5049817;28;20028;-78
2021/07/10 06:15:42;;;;;;;38.63;23.10;;;;;;;17.94;75.84;101931.25;5047860;28;20065;-77
2021/07/10 06:18:07;;;;;;;37.40;22.90;;;;;;;17.88;75.64;101934.75;5045452;28;20032;-80
2021/07/10 06:20:34;;;;;;;41.53;23.17;;;;;;;17.87;75.23;101931.19;5046635;28;20033;-78
2021/07/10 06:23:01;;;;;;;36.90;22.35;;;;;;;17.84;75.14;101922.31;5049556;28;20271;-77
2021/07/10 06:25:42;;;;;;;42.53;23.48;;;;;;;17.88;76.31;101924.09;5050267;28;20053;-77
2021/07/10 06:28:07;;;;;;;45.47;24.05;;;;;;;17.92;75.83;101922.34;5048045;28;20067;-78
2021/07/10 06:30:37;;;;;;;39.83;22.50;;;;;;;17.97;75.71;101920.59;5050202;28;20471;-78
2021/07/10 06:33:03;;;;;;;40.08;23.38;;;;;;;18.04;75.82;101919.72;5051700;28;20077;-80
2021/07/10 06:35:49;;;;;;;41.10;23.23;;;;;;;18.17;75.67;101923.31;5030476;28;20040;-78
2021/07/10 06:38:14;;;;;;;41.33;22.20;;;;;;;18.32;74.81;101922.47;5050302;28;20049;-78
2021/07/10 06:40:40;;;;;;;42.33;23.67;;;;;;;18.48;73.08;101924.25;5050157;28;20539;-78
2021/07/10 06:43:05;;;;;;;40.78;22.80;;;;;;;18.58;73.12;101913.63;5039635;28;20087;-80
2021/07/10 06:45:31;;;;;;;38.17;22.13;;;;;;;18.74;72.12;101917.19;5050764;28;20048;-79
2021/07/10 06:48:01;;;;;;;42.72;24.20;;;;;;;18.90;71.28;101904.75;5048056;28;20029;-79
2021/07/10 06:50:27;;;;;;;39.80;23.00;;;;;;;19.36;72.65;101904.66;5034880;28;20039;-79
2021/07/10 06:52:53;;;;;;;31.65;19.35;;;;;;;19.97;70.04;101913.34;5053492;28;20098;-81
2021/07/10 06:55:18;;;;;;;28.48;19.40;;;;;;;20.23;66.51;101912.31;5053090;28;20054;-78
2021/07/10 06:57:44;;;;;;;32.45;19.75;;;;;;;20.03;67.25;101907.94;5049400;28;20096;-78
2021/07/10 07:00:14;;;;;;;33.33;20.40;;;;;;;19.88;68.26;101904.47;5046926;28;20297;-79
2021/07/10 07:02:40;;;;;;;31.55;19.98;;;;;;;20.03;67.74;101913.31;5048404;28;20522;-79
2021/07/10 07:05:26;;;;;;;30.13;19.05;;;;;;;20.46;68.39;101917.50;5039005;28;20116;-79
2021/07/10 07:07:51;;;;;;;33.70;19.50;;;;;;;20.62;64.94;101910.22;5043285;28;20052;-80
2021/07/10 07:10:16;;;;;;;32.80;20.48;;;;;;;20.39;65.52;101916.66;5045304;28;20021;-79
2021/07/10 07:12:42;;;;;;;30.48;19.23;;;;;;;20.35;65.84;101904.19;5045896;28;20033;-80
2021/07/10 07:15:27;;;;;;;28.73;17.60;;;;;;;20.48;64.39;101913.00;5042475;28;20059;-80
2021/07/10 07:17:53;;;;;;;25.92;16.48;;;;;;;20.42;65.95;101913.94;5040941;28;20518;-80
2021/07/10 07:20:18;;;;;;;24.98;17.40;;;;;;;20.18;66.25;101910.56;5045960;28;20052;-80
2021/07/10 07:22:47;;;;;;;28.42;19.00;;;;;;;19.80;68.57;101910.72;5041574;28;20324;-79
2021/07/10 07:25:34;;;;;;;26.73;18.80;;;;;;;19.55;69.53;101906.38;5043875;28;20059;-80
2021/07/10 07:28:00;;;;;;;29.83;19.40;;;;;;;19.52;68.17;101906.38;5044674;28;20064;-80
2021/07/10 07:30:26;;;;;;;30.85;19.98;;;;;;;19.40;69.61;101900.19;5040887;28;20037;-79
2021/07/10 07:32:51;;;;;;;35.10;20.70;;;;;;;19.35;70.16;101906.44;5037849;28;20459;-79
2021/07/10 07:35:17;;;;;;;33.97;20.48;;;;;;;19.58;68.46;101893.91;5046870;28;20139;-79
2021/07/10 07:37:45;;;;;;;35.92;21.52;;;;;;;19.70;67.45;101893.84;5042746;28;20491;-81
2021/07/10 07:40:31;;;;;;;33.78;19.38;;;;;;;19.80;67.80;101900.03;5050454;28;20061;-78
2021/07/10 07:42:56;;;;;;;32.80;20.20;;;;;;;20.33;66.62;101896.19;5042455;28;20045;-79
2021/07/10 07:45:21;;;;;;;29.75;18.92;;;;;;;21.07;64.74;101889.34;5039945;28;20106;-80
2021/07/10 07:48:07;;;;;;;31.55;21.80;;;;;;;21.71;63.87;101886.81;5046352;28;20039;-80
2021/07/10 07:50:32;;;;;;;32.72;19.38;;;;;;;22.26;60.54;101884.25;5051569;28;20061;-81
2021/07/10 07:52:58;;;;;;;33.33;19.75;;;;;;;22.39;60.05;101886.72;5045256;28;20098;-80
2021/07/10 07:55:27;;;;;;;32.15;20.63;;;;;;;22.15;60.68;101896.03;5040949;28;20033;-79
2021/07/10 07:57:53;;;;;;;29.67;20.00;;;;;;;22.07;60.42;101889.91;5044354;28;20037;-79
2021/07/10 08:00:22;;;;;;;27.77;18.77;;;;;;;21.95;60.40;101890.06;5039586;28;20406;-78
2021/07/10 08:02:48;;;;;;;28.35;20.13;;;;;;;21.90;62.08;101884.78;5046447;28;20033;-80
2021/07/10 08:05:14;;;;;;;35.35;22.02;;;;;;;22.41;59.73;101876.00;5019255;28;20033;-80
2021/07/10 08:07:40;;;;;;;31.17;20.48;;;;;;;22.79;63.06;101874.47;5024377;28;20029;-80
2021/07/10 08:10:07;;;;;;;29.00;20.02;;;;;;;23.13;58.06;101871.19;5019717;28;20130;-81
2021/07/10 08:12:33;;;;;;;33.10;20.27;;;;;;;23.12;56.42;101872.03;5024529;28;20538;-80
2021/07/10 08:14:58;;;;;;;29.27;19.92;;;;;;;23.22;56.92;101875.47;5022417;28;20025;-80
2021/07/10 08:17:24;;;;;;;29.70;18.65;;;;;;;23.26;56.32;101868.25;5023618;28;20060;-81
2021/07/10 08:19:50;;;;;;;24.67;18.40;;;;;;;23.38;55.32;101868.84;5021210;28;20055;-81
2021/07/10 08:22:16;;;;;;;23.88;17.77;;;;;;;23.24;54.88;101863.78;5022277;28;20136;-79
2021/07/10 08:24:41;;;;;;;23.35;18.20;;;;;;;23.20;56.68;101869.25;5021075;28;20056;-82
2021/07/10 08:27:07;;;;;;;26.83;18.35;;;;;;;22.95;55.72;101875.03;5027026;28;20053;-81
2021/07/10 08:29:34;;;;;;;25.00;17.02;;;;;;;22.56;57.27;101867.69;5035084;28;20159;-80
2021/07/10 08:31:59;;;;;;;23.63;17.75;;;;;;;22.40;55.73;101861.69;5029482;28;20050;-82
2021/07/10 08:34:26;;;;;;;25.50;18.60;;;;;;;22.31;57.55;101866.28;5034126;28;20030;-81
2021/07/10 08:36:52;;;;;;;23.70;18.33;;;;;;;22.58;57.20;101853.38;5018581;28;20108;-83
2021/07/10 08:39:17;;;;;;;21.88;14.90;;;;;;;22.72;57.00;101854.00;5041033;28;20115;-81
2021/07/10 08:41:46;;;;;;;23.73;16.85;;;;;;;22.86;56.50;101862.69;5027659;28;20025;-81
2021/07/10 08:44:13;;;;;;;21.95;15.38;;;;;;;23.03;55.66;101854.34;5026977;28;20476;-81
2021/07/10 08:46:39;;;;;;;23.40;15.65;;;;;;;23.18;56.07;101855.88;5027358;28;20030;-81
2021/07/10 08:49:05;;;;;;;21.73;15.73;;;;;;;23.04;55.22;101860.56;5028311;28;20033;-83
2021/07/10 08:51:30;;;;;;;23.02;16.83;;;;;;;23.02;55.05;101855.25;5035781;28;20422;-80
2021/07/10 08:53:56;;;;;;;20.20;15.90;;;;;;;22.66;56.98;101855.00;5027730;28;20038;-81
2021/07/10 08:56:21;;;;;;;21.48;15.20;;;;;;;22.67;55.55;101847.84;5027574;28;20028;-80
2021/07/10 08:58:47;;;;;;;17.95;13.95;;;;;;;22.73;53.75;101851.31;5026710;28;20061;-81
2021/07/10 09:01:13;;;;;;;19.20;15.32;;;;;;;22.83;56.82;101849.34;5033453;28;20037;-82
2021/07/10 09:03:42;;;;;;;19.73;14.80;;;;;;;23.20;55.57;101843.28;5030789;28;20030;-82
2021/07/10 09:06:08;;;;;;;23.40;16.10;;;;;;;23.61;52.83;101842.44;5027647;28;20059;-83
2021/07/10 09:08:34;;;;;;;23.15;15.80;;;;;;;24.17;51.85;101834.91;5014048;28;20040;-82
2021/07/10 09:10:59;;;;;;;19.85;14.68;;;;;;;24.21;54.61;101843.75;5027707;28;20108;-81
2021/07/10 09:13:57;;;;;;;22.70;15.02;;;;;;;24.05;53.05;101837.84;5025575;28;20116;-82
2021/07/10 09:16:24;;;;;;;18.77;15.18;;;;;;;24.69;50.46;101832.69;5011789;28;20124;-82
2021/07/10 09:19:02;;;;;;;20.35;14.80;;;;;;;24.71;48.13;101832.66;5027472;28;20045;-80
2021/07/10 09:21:43;;;;;;;19.08;13.20;;;;;;;24.38;51.39;101832.59;5029984;28;20052;-81
2021/07/10 09:24:14;;;;;;;17.98;13.65;;;;;;;23.43;53.18;101828.50;5029903;28;20472;-81
2021/07/10 09:26:46;;;;;;;15.90;13.05;;;;;;;23.19;53.76;101836.13;5029661;28;20075;-80
2021/07/10 09:29:39;;;;;;;14.32;12.68;;;;;;;22.94;54.53;101835.72;5012223;28;20079;-81
2021/07/10 09:32:13;;;;;;;16.45;13.25;;;;;;;22.69;55.53;101825.44;5021270;28;20041;-81
2021/07/10 09:34:44;;;;;;;17.45;13.63;;;;;;;22.63;55.11;101830.91;5022419;28;20091;-81
2021/07/10 09:37:20;;;;;;;15.32;11.90;;;;;;;22.77;54.40;101829.78;5018120;28;20116;-81
2021/07/10 09:39:55;;;;;;;19.65;13.30;;;;;;;22.74;52.91;101818.19;5033315;28;20037;-80
2021/07/10 09:42:43;;;;;;;17.00;12.15;;;;;;;23.01;57.25;101826.63;5029807;28;20535;-81
2021/07/10 09:45:17;;;;;;;17.75;12.55;;;;;;;23.46;52.89;101814.13;5018138;28;20057;-80
2021/07/10 09:47:43;;;;;;;17.73;13.00;;;;;;;23.92;51.82;101822.97;5013056;28;20041;-78
2021/07/10 09:50:17;;;;;;;18.98;13.52;;;;;;;24.19;49.90;101824.09;5024895;28;20538;-80
2021/07/10 09:52:42;;;;;;;16.67;13.10;;;;;;;24.24;50.51;101811.41;5031349;28;20100;-80
2021/07/10 09:55:31;;;;;;;21.88;13.13;;;;;;;23.96;51.36;101811.22;5027678;28;20449;-81
2021/07/10 09:57:58;;;;;;;18.38;12.85;;;;;;;23.60;51.40;101809.28;5026448;28;20068;-80
2021/07/10 10:00:25;;;;;;;17.00;13.18;;;;;;;23.60;53.81;101808.44;5029871;28;20053;-80
2021/07/10 10:02:56;;;;;;;18.77;13.30;;;;;;;23.52;50.56;101803.22;5029112;28;20051;-80
2021/07/10 10:05:28;;;;;;;18.08;12.40;;;;;;;23.77;52.64;101806.22;5050746;28;20055;-81
2021/07/10 10:07:57;;;;;;;15.68;11.07;;;;;;;23.90;49.87;101801.47;5051951;28;20037;-80
2021/07/10 10:10:24;;;;;;;15.35;12.40;;;;;;;23.76;55.40;101800.91;5045995;28;20040;-80
2021/07/10 10:13:04;;;;;;;18.98;12.32;;;;;;;23.76;50.45;101799.09;5051139;28;20025;-77
2021/07/10 10:15:50;;;;;;;15.98;12.45;;;;;;;23.73;51.55;101793.78;5049062;28;20033;-80
2021/07/10 10:18:18;;;;;;;18.20;13.98;;;;;;;23.55;51.67;101798.66;5048905;28;20068;-79
2021/07/10 10:21:03;;;;;;;17.02;12.15;;;;;;;23.35;52.85;101803.59;5045059;28;20040;-80
2021/07/10 10:23:45;;;;;;;19.25;14.85;;;;;;;23.23;53.37;101800.25;5048500;28;20547;-81
2021/07/10 10:26:10;;;;;;;18.77;14.00;;;;;;;23.20;52.54;101803.00;5041519;28;20065;-81
2021/07/10 10:28:37;;;;;;;18.08;14.27;;;;;;;23.46;54.47;101806.06;5043682;28;20505;-81
2021/07/10 10:31:03;;;;;;;17.85;14.35;;;;;;;23.86;51.61;101800.66;5044664;28;20044;-80
2021/07/10 10:33:28;;;;;;;23.15;15.43;;;;;;;24.13;50.78;101792.84;5050414;28;20471;-81
2021/07/10 10:35:56;;;;;;;18.77;15.05;;;;;;;24.50;52.87;101801.75;5033911;28;20380;-80
2021/07/10 10:38:39;;;;;;;19.13;13.23;;;;;;;25.04;46.17;101792.25;5042147;28;20044;-80
2021/07/10 10:41:24;;;;;;;16.17;12.70;;;;;;;25.24;47.41;101784.47;5038926;28;20037;-79
2021/07/10 10:44:13;;;;;;;13.48;11.45;;;;;;;26.28;44.42;101777.66;5052593;28;20038;-81
2021/07/10 10:47:05;;;;;;;16.65;11.80;;;;;;;27.32;44.47;101774.75;5049247;28;20044;-81
2021/07/10 10:49:48;;;;;;;12.43;8.85;;;;;;;27.25;39.66;101772.31;5047783;28;20064;-81
2021/07/10 10:52:29;;;;;;;12.70;10.67;;;;;;;28.26;43.67;101769.16;5054449;28;20034;-80
2021/07/10 10:54:57;;;;;;;11.52;9.23;;;;;;;28.67;39.63;101759.31;5048408;28;20276;-81
2021/07/10 10:57:43;;;;;;;11.75;9.40;;;;;;;28.34;39.28;101766.13;5047639;28;20403;-80
2021/07/10 11:00:32;;;;;;;13.20;11.02;;;;;;;27.77;41.78;101760.38;5038902;28;20455;-81
2021/07/10 11:03:06;;;;;;;15.75;11.95;;;;;;;27.63;41.69;101752.81;5047061;28;20517;-80
2021/07/10 11:05:32;;;;;;;13.60;11.30;;;;;;;27.97;40.61;101753.25;5046363;28;20044;-79
2021/07/10 11:08:16;;;;;;;12.77;10.40;;;;;;;28.40;39.60;101755.00;5045953;28;20399;-80
2021/07/10 11:10:41;;;;;;;12.60;10.30;;;;;;;27.96;39.17;101751.47;5046416;28;20029;-81
2021/07/10 11:13:51;;;;;;;13.23;10.75;;;;;;;27.00;40.28;101741.78;5031502;28;20494;-81
2021/07/10 11:16:19;;;;;;;12.88;8.75;;;;;;;26.53;43.61;101746.16;5046023;28;20044;-81
2021/07/10 11:18:58;;;;;;;10.77;7.95;;;;;;;25.97;42.72;101738.19;5055077;28;20032;-81
2021/07/10 11:21:37;;;;;;;9.38;7.93;;;;;;;25.75;44.19;101741.59;5045495;28;20036;-82
2021/07/10 11:26:52;;;;;;;16.25;9.15;;;;;;;25.54;43.96;101735.09;5030224;28;20043;-81